Flight Track Log - Related Links

Times and Time Zones

All times are in EDT time to prevent confusion due to time zone crossing. See the AAL2272 flight status page for this flight to view local times or setup timezone preferences in your user account.

Time Position Orientation Groundspeed Altitude Reporting Facility
EDT Latitude Longitude Course Direction KTS MPH feet Rate Location/Type
Thu 02:55:06 PM 32.8703 -97.0508 208° Southwest 168 193 1,800  Level FAA TRACON SMA TRACON (SMA)
Thu 02:59:07 PM 32.6894 -97.1631 274° West 274 315 9,400 1,964 Climbing FAA TRACON SMA TRACON (SMA)
Thu 02:59:47 PM 32.6933 -97.2297 274° West 291 335 11,000 2,475 Climbing FAA TRACON SMA TRACON (SMA)
Thu 03:00:27 PM 32.6972 -97.2947 275° West 285 328 12,700 1,875 Climbing FAA TRACON SMA TRACON (SMA)
Thu 03:01:07 PM 32.7014 -97.3569 275° West 308 354 13,500 1,350 Climbing FAA TRACON SMA TRACON (SMA)
Thu 03:01:47 PM 32.7072 -97.4344 274° West 342 394 14,500 1,950 Climbing FAA TRACON SMA TRACON (SMA)
Thu 03:02:27 PM 32.7117 -97.5147 275° West 354 407 16,100 1,899 Climbing FAA TRACON SMA TRACON (SMA)
Thu 03:03:06 PM 32.7169 -97.5892 274° West 366 421 17,000 1,975 Climbing FAA TRACON SMA TRACON (SMA)
Thu 03:03:46 PM 32.7222 -97.6764 272° West 384 442 18,700 2,250 Climbing FAA TRACON SMA TRACON (SMA)
Thu 03:04:26 PM 32.7247 -97.7531 271° West 381 438 20,000 1,704 Climbing FAA TRACON SMA TRACON (SMA)
Thu 03:05:07 PM 32.7258 -97.8425 270° West 388 447 21,000 1,481 Climbing FAA TRACON SMA TRACON (SMA)
Thu 03:05:47 PM 32.7258 -97.9339 268° West 399 459 22,000 1,425 Climbing FAA TRACON SMA TRACON (SMA)
Thu 03:06:27 PM 32.7236 -98.0167 263° West 408 470 22,900 1,425 Climbing FAA TRACON SMA TRACON (SMA)
Thu 03:07:07 PM 32.7144 -98.1114 261° West 417 480 23,900 1,350 Climbing FAA TRACON SMA TRACON (SMA)
Thu 03:07:47 PM 32.7028 -98.1958 261° West 421 484 24,700 1,317 Climbing FAA TRACON SMA TRACON (SMA)
Thu 03:09:10 PM 32.6750 -98.3981 261° West 431 496 26,600 1,259 Climbing Fort Worth Center
Thu 03:10:10 PM 32.6572 -98.5239 263° West 431 496 27,700 1,150 Climbing Fort Worth Center
Thu 03:11:10 PM 32.6411 -98.6717 261° West 436 502 28,900 1,350 Climbing Fort Worth Center
Thu 03:12:10 PM 32.6208 -98.8267 266° West 436 502 30,400 1,300 Climbing Fort Worth Center
Thu 03:13:10 PM 32.6128 -98.9697 264° West 441 507 31,500 800 Climbing Fort Worth Center
Thu 03:14:10 PM 32.6006 -99.1125 264° West 441 507 32,000 250 Climbing Fort Worth Center
Thu 03:15:10 PM 32.5881 -99.2528 265° West 441 507 32,000  Level Fort Worth Center
Thu 03:16:10 PM 32.5775 -99.3956 264° West 441 507 32,000  Level Fort Worth Center
Thu 03:17:10 PM 32.5647 -99.5383 264° West 441 507 32,000  Level Fort Worth Center
Thu 03:18:10 PM 32.5519 -99.6783 263° West 441 507 32,000  Level Fort Worth Center
Thu 03:19:10 PM 32.5367 -99.8233 266° West 441 507 32,000  Level Fort Worth Center
Thu 03:20:10 PM 32.5275 -99.9686 265° West 446 513 32,000  Level Fort Worth Center
Thu 03:21:10 PM 32.5161 -100.1111 264° West 446 513 32,000  Level Fort Worth Center
Thu 03:22:10 PM 32.5050 -100.2364 265° West 441 507 32,000  Level Fort Worth Center
Thu 03:23:10 PM 32.4936 -100.3764 264° West 441 507 32,000  Level Fort Worth Center
Thu 03:24:10 PM 32.4817 -100.5189 263° West 441 507 32,000  Level Fort Worth Center
Thu 03:25:10 PM 32.4678 -100.6564 264° West 441 507 32,000  Level Fort Worth Center
Thu 03:26:10 PM 32.4558 -100.7986 263° West 436 502 32,000  Level Fort Worth Center
Thu 03:27:10 PM 32.4414 -100.9358 264° West 436 502 32,000  Level Fort Worth Center
Thu 03:28:10 PM 32.4292 -101.0758 263° West 436 502 32,000  Level Fort Worth Center
Thu 03:29:10 PM 32.4144 -101.2178 262° West 436 502 32,000  Level Fort Worth Center
Thu 03:30:10 PM 32.3972 -101.3697 264° West 436 502 32,000  Level Fort Worth Center
Thu 03:31:10 PM 32.3844 -101.5069 263° West 431 496 32,000  Level Fort Worth Center
Thu 03:32:10 PM 32.3694 -101.6464 264° West 431 496 32,000  Level Fort Worth Center
Thu 03:33:10 PM 32.3564 -101.7858 263° West 425 489 32,000  Level Fort Worth Center
Thu 03:34:10 PM 32.3408 -101.9253 264° West 425 489 32,000  Level Fort Worth Center
Thu 03:35:10 PM 32.3303 -102.0475 261° West 425 489 32,000  Level Fort Worth Center
Thu 03:36:10 PM 32.3125 -102.1844 264° West 425 489 32,000  Level Fort Worth Center
Thu 03:37:10 PM 32.3008 -102.3261 262° West 425 489 32,000  Level Fort Worth Center
Thu 03:38:10 PM 32.2847 -102.4678 263° West 430 495 32,000  Level Fort Worth Center
Thu 03:39:10 PM 32.2683 -102.6167 264° West 430 495 32,000  Level Fort Worth Center
Thu 03:40:10 PM 32.2564 -102.7536 262° West 425 489 32,000  Level Fort Worth Center
Thu 03:41:10 PM 32.2400 -102.8900 263° West 425 489 32,000  Level Fort Worth Center
Thu 03:42:10 PM 32.2253 -103.0342 263° West 430 495 32,000  Level Fort Worth Center
Thu 03:43:10 PM 32.2108 -103.1683 262° West 425 489 32,000  Level Fort Worth Center
Thu 03:44:10 PM 32.1939 -103.3094 263° West 425 489 32,000  Level Fort Worth Center
Thu 03:45:10 PM 32.1817 -103.4339 263° West 430 495 32,000  Level Fort Worth Center
Thu 03:46:10 PM 32.1664 -103.5750 262° West 430 495 32,000  Level Fort Worth Center
Thu 03:47:02 PM 32.1511 -103.7092 261° West 426 490 32,000  Level Albuquerque Center
Thu 03:48:02 PM 32.1325 -103.8472 263° West 416 479 32,000  Level Albuquerque Center
Thu 03:49:02 PM 32.1194 -103.9728 260° West 429 494 32,000 -50 Level Albuquerque Center
Thu 03:50:02 PM 32.1000 -104.1056 263° West 429 494 31,900 -50 Descending Albuquerque Center
Thu 03:51:02 PM 32.0850 -104.2408 262° West 422 486 31,900  Level Albuquerque Center
Thu 03:52:02 PM 32.0675 -104.3786 262° West 422 486 31,900 50 Level Albuquerque Center
Thu 03:53:02 PM 32.0500 -104.5189 261° West 429 494 32,000 50 Climbing Albuquerque Center
Thu 03:54:02 PM 32.0322 -104.6492 262° West 423 487 32,000 -50 Level Albuquerque Center
Thu 03:55:02 PM 32.0164 -104.7817 261° West 418 481 31,900  Descending Albuquerque Center
Thu 03:56:02 PM 31.9983 -104.9192 263° West 423 487 32,000  Climbing Albuquerque Center
Thu 03:57:02 PM 31.9825 -105.0617 261° West 430 495 31,900 -50 Descending Albuquerque Center
Thu 03:58:02 PM 31.9642 -105.1992 260° West 430 495 31,900  Level Albuquerque Center
Thu 03:59:02 PM 31.9436 -105.3364 262° West 430 495 31,900  Level Albuquerque Center
Thu 04:00:02 PM 31.9272 -105.4761 262° West 430 495 31,900  Level Albuquerque Center
Thu 04:01:02 PM 31.9103 -105.6111 260° West 430 495 31,900  Level Albuquerque Center
Thu 04:02:02 PM 31.8894 -105.7458 262° West 430 495 31,900  Level Albuquerque Center
Thu 04:03:02 PM 31.8706 -105.8978 261° West 430 495 31,900  Level Albuquerque Center
Thu 04:04:02 PM 31.8511 -106.0347 261° West 430 495 31,900  Level Albuquerque Center
Thu 04:05:02 PM 31.8317 -106.1717 265° West 430 495 31,900  Level Albuquerque Center
Thu 04:06:02 PM 31.8206 -106.3086 278° West 430 495 31,900  Level Albuquerque Center
Thu 04:07:02 PM 31.8361 -106.4478 278° West 425 489 31,900  Level Albuquerque Center
Thu 04:08:02 PM 31.8497 -106.5697 278° West 419 482 31,900  Level Albuquerque Center
Thu 04:09:02 PM 31.8672 -106.7089 276° West 429 494 31,900  Level Albuquerque Center
Thu 04:10:02 PM 31.8803 -106.8503 276° West 429 494 31,900  Level Albuquerque Center
Thu 04:11:02 PM 31.8933 -106.9872 277° West 434 499 31,900  Level Albuquerque Center
Thu 04:12:02 PM 31.9083 -107.1264 277° West 434 499 31,900  Level Albuquerque Center
Thu 04:13:02 PM 31.9231 -107.2658 277° West 434 499 31,900  Level Albuquerque Center
Thu 04:14:02 PM 31.9397 -107.4172 277° West 429 494 31,900  Level Albuquerque Center
Thu 04:15:02 PM 31.9542 -107.5592 277° West 429 494 31,900  Level Albuquerque Center
Thu 04:16:02 PM 31.9686 -107.6961 276° West 429 494 31,900  Level Albuquerque Center
Thu 04:17:02 PM 31.9806 -107.8356 277° West 424 488 31,900  Level Albuquerque Center
Thu 04:18:02 PM 31.9944 -107.9753 284° West 424 488 31,900  Level Albuquerque Center
Thu 04:19:02 PM 32.0231 -108.1075 284° West 424 488 31,900  Level Albuquerque Center
Thu 04:20:02 PM 32.0511 -108.2400 284° West 424 488 31,900  Level Albuquerque Center
Thu 04:21:02 PM 32.0794 -108.3725 285° West 424 488 31,900  Level Albuquerque Center
Thu 04:22:02 PM 32.1094 -108.5053 284° West 424 488 31,900  Level Albuquerque Center
Thu 04:23:02 PM 32.1372 -108.6378 285° West 419 482 31,900  Level Albuquerque Center
Thu 04:24:02 PM 32.1672 -108.7706 285° West 414 476 31,900  Level Albuquerque Center
Thu 04:25:02 PM 32.1967 -108.9036 284° West 409 471 31,900  Level Albuquerque Center
Thu 04:26:02 PM 32.2242 -109.0367 285° West 415 478 31,900  Level Albuquerque Center
Thu 04:27:02 PM 32.2556 -109.1744 284° West 420 483 31,900  Level Albuquerque Center
Thu 04:28:02 PM 32.2828 -109.3053 284° West 420 483 31,900  Level Albuquerque Center
Thu 04:29:02 PM 32.3097 -109.4383 284° West 415 478 31,900  Level Albuquerque Center
Thu 04:30:02 PM 32.3386 -109.5717 283° West 415 478 31,900 50 Level Albuquerque Center
Thu 04:31:02 PM 32.3650 -109.7075 283° West 415 478 32,000 50 Climbing Albuquerque Center
Thu 04:32:02 PM 32.3917 -109.8436 290° West 415 478 32,000  Level Albuquerque Center
Thu 04:33:02 PM 32.4286 -109.9650 283° West 431 496 32,000  Level Albuquerque Center
Thu 04:34:02 PM 32.4550 -110.0986 284° West 431 496 32,000  Level Albuquerque Center
Thu 04:35:02 PM 32.4831 -110.2325 283° West 417 480 32,000  Level Albuquerque Center
Thu 04:36:02 PM 32.5128 -110.3811 284° West 417 480 32,000  Level Albuquerque Center
Thu 04:37:02 PM 32.5406 -110.5150 283° West 417 480 32,000  Level Albuquerque Center
Thu 04:38:02 PM 32.5664 -110.6464 284° West 412 474 32,000  Level Albuquerque Center
Thu 04:39:02 PM 32.5939 -110.7781 284° West 412 474 32,000  Level Albuquerque Center
Thu 04:40:02 PM 32.6214 -110.9097 283° West 412 474 32,000  Level Albuquerque Center
Thu 04:41:02 PM 32.6447 -111.0292 282° West 412 474 32,000  Level Albuquerque Center
Thu 04:42:02 PM 32.6678 -111.1631 285° West 412 474 32,000  Level Albuquerque Center
Thu 04:43:02 PM 32.6969 -111.2928 282° West 412 474 32,000  Level Albuquerque Center
Thu 04:44:02 PM 32.7217 -111.4294 283° West 418 481 32,000  Level Albuquerque Center
Thu 04:45:02 PM 32.7483 -111.5642 282° West 412 474 32,000  Level Albuquerque Center
Thu 04:46:02 PM 32.7728 -111.6961 283° West 412 474 32,000  Level Albuquerque Center
Thu 04:47:02 PM 32.8008 -111.8383 283° West 412 474 32,000  Level Albuquerque Center
Thu 04:48:02 PM 32.8250 -111.9681 283° West 412 474 32,000  Level Albuquerque Center
Thu 04:49:02 PM 32.8511 -112.1003 283° West 412 474 32,000  Level Albuquerque Center
Thu 04:50:02 PM 32.8753 -112.2303 282° West 412 474 32,000  Level Albuquerque Center
Thu 04:51:02 PM 32.8989 -112.3628 283° West 412 474 32,000  Level Albuquerque Center
Thu 04:52:02 PM 32.9244 -112.4978 282° West 412 474 32,000  Level Albuquerque Center
Thu 04:53:02 PM 32.9481 -112.6303 270° West 412 474 32,000  Level Albuquerque Center
Thu 04:54:02 PM 32.9483 -112.7639 259° West 412 474 32,000  Level Albuquerque Center
Thu 04:55:02 PM 32.9283 -112.8836 262° West 412 474 32,000  Level Albuquerque Center
Thu 04:56:02 PM 32.9117 -113.0161 261° West 412 474 32,000  Level Albuquerque Center
Thu 04:57:02 PM 32.8928 -113.1508 260° West 412 474 32,000  Level Albuquerque Center
Thu 04:58:02 PM 32.8736 -113.2831 261° West 412 474 32,000 -34 Level Albuquerque Center
Thu 04:59:57 PM 32.8378 -113.5503 260° West 409 471 31,900 -34 Descending Los Angeles Center
Thu 05:00:58 PM 32.8175 -113.6819 260° West 409 471 31,900  Level Los Angeles Center
Thu 05:01:57 PM 32.7969 -113.8183 262° West 409 471 31,900  Level Los Angeles Center
Thu 05:02:57 PM 32.7806 -113.9497 267° West 409 471 31,900  Level Los Angeles Center
Thu 05:03:57 PM 32.7747 -114.0858 269° West 414 476 31,900  Level Los Angeles Center
Thu 05:04:57 PM 32.7728 -114.2192 270° West 414 476 31,900  Level Los Angeles Center
Thu 05:05:57 PM 32.7725 -114.3525 268° West 409 471 31,900  Level Los Angeles Center
Thu 05:06:57 PM 32.7681 -114.4886 269° West 404 465 31,900 -850 Level Los Angeles Center
Thu 05:07:57 PM 32.7658 -114.6219 269° West 404 465 30,200 -1,750 Descending Los Angeles Center
Thu 05:08:57 PM 32.7631 -114.7603 269° West 404 465 28,400 -1,750 Descending Los Angeles Center
Thu 05:09:57 PM 32.7606 -114.8961 269° West 404 465 26,700 -1,800 Descending Los Angeles Center
Thu 05:10:57 PM 32.7594 -115.0272 267° West 404 465 24,800 -1,400 Descending Los Angeles Center
Thu 05:11:57 PM 32.7544 -115.1556 269° West 404 465 23,900 -450 Descending Los Angeles Center
Thu 05:12:57 PM 32.7533 -115.2839 268° West 399 459 23,900 -750 Level Los Angeles Center
Thu 05:13:57 PM 32.7500 -115.4075 269° West 392 451 22,400 -1,500 Descending Los Angeles Center
Thu 05:14:57 PM 32.7483 -115.5336 273° West 385 443 20,900 -1,500 Descending Los Angeles Center
Thu 05:15:57 PM 32.7531 -115.6569 271° West 380 437 19,400 -1,700 Descending Los Angeles Center
Thu 05:16:57 PM 32.7556 -115.7778 271° West 380 437 17,500 -1,700 Descending Los Angeles Center
Thu 05:17:57 PM 32.7581 -115.8964 271° West 375 432 16,000 -1,500 Descending Los Angeles Center
Thu 05:18:57 PM 32.7603 -116.0150 272° West 364 419 14,500 -1,500 Descending Los Angeles Center
Thu 05:19:57 PM 32.7644 -116.1311 271° West 364 419 13,000 -1,500 Descending Los Angeles Center
Thu 05:20:57 PM 32.7664 -116.2472 264° West 364 419 11,500 -1,300 Descending Los Angeles Center
Thu 05:21:57 PM 32.7581 -116.3386 261° West 359 413 10,400 -900 Descending Los Angeles Center
Thu 05:22:57 PM 32.7431 -116.4544 260° West 348 400 9,700 -250 Descending Los Angeles Center
Thu 05:23:57 PM 32.7283 -116.5508 260° West 321 369 9,900 -400 Climbing Los Angeles Center
Thu 05:24:57 PM 32.7153 -116.6419 221° Southwest 297 342 8,900 -950 Descending Los Angeles Center
Thu 05:25:57 PM 32.6586 -116.7008 243° Southwest 268 308 8,000 -1,050 Descending Los Angeles Center
Thu 05:26:57 PM 32.6314 -116.7647 286° West 247 284 6,800 -1,100 Descending Los Angeles Center
Thu 05:27:57 PM 32.6497 -116.8414 296° West 228 262 5,800 -1,010 Descending Los Angeles Center
Thu 05:28:38 PM 32.6667 -116.8833 287° West 215 247 5,100 -1,069 Descending Southern California TRACON
Thu 05:29:38 PM 32.6833 -116.9500 270° West 186 214 4,000 -1,000 Descending Southern California TRACON
Thu 05:30:38 PM 32.6833 -117.0000 270° West 167 192 3,100 -900 Descending Southern California TRACON

Login

Don't have an account? Register now (free) for customized features, flight alerts, and more!